sensor_id;sensor_type;location;lat;lon;timestamp;P1;durP1;ratioP1;P2;durP2;ratioP2
80481;SDS011;69797;43.864;21.410;2023-07-02T00:01:17;6.05;;;2.67;;
80481;SDS011;69797;43.864;21.410;2023-07-02T00:03:46;9.13;;;2.92;;
80481;SDS011;69797;43.864;21.410;2023-07-02T00:06:13;9.87;;;2.63;;
80481;SDS011;69797;43.864;21.410;2023-07-02T00:08:40;6.53;;;2.80;;
80481;SDS011;69797;43.864;21.410;2023-07-02T00:11:07;5.50;;;2.60;;
80481;SDS011;69797;43.864;21.410;2023-07-02T00:13:38;5.07;;;2.70;;
80481;SDS011;69797;43.864;21.410;2023-07-02T00:16:05;7.25;;;2.53;;
80481;SDS011;69797;43.864;21.410;2023-07-02T00:18:33;6.97;;;2.50;;
80481;SDS011;69797;43.864;21.410;2023-07-02T00:21:02;7.63;;;2.80;;
80481;SDS011;69797;43.864;21.410;2023-07-02T00:23:30;6.70;;;2.88;;
80481;SDS011;69797;43.864;21.410;2023-07-02T00:25:57;9.40;;;3.90;;
80481;SDS011;69797;43.864;21.410;2023-07-02T00:28:23;7.53;;;3.72;;
80481;SDS011;69797;43.864;21.410;2023-07-02T00:30:50;9.07;;;4.20;;
80481;SDS011;69797;43.864;21.410;2023-07-02T00:33:20;13.00;;;5.38;;
80481;SDS011;69797;43.864;21.410;2023-07-02T00:35:46;13.32;;;5.30;;
80481;SDS011;69797;43.864;21.410;2023-07-02T00:38:13;15.45;;;5.47;;
80481;SDS011;69797;43.864;21.410;2023-07-02T00:40:40;12.77;;;5.40;;
80481;SDS011;69797;43.864;21.410;2023-07-02T00:43:09;11.17;;;5.27;;
80481;SDS011;69797;43.864;21.410;2023-07-02T00:45:39;13.05;;;5.90;;
80481;SDS011;69797;43.864;21.410;2023-07-02T00:48:06;11.55;;;5.30;;
80481;SDS011;69797;43.864;21.410;2023-07-02T00:50:35;18.48;;;5.70;;
80481;SDS011;69797;43.864;21.410;2023-07-02T00:53:02;12.55;;;5.40;;
80481;SDS011;69797;43.864;21.410;2023-07-02T00:55:29;11.53;;;4.93;;
80481;SDS011;69797;43.864;21.410;2023-07-02T00:57:56;14.13;;;5.82;;
80481;SDS011;69797;43.864;21.410;2023-07-02T01:00:25;10.90;;;5.10;;
80481;SDS011;69797;43.864;21.410;2023-07-02T01:02:55;10.95;;;3.90;;
80481;SDS011;69797;43.864;21.410;2023-07-02T01:05:26;11.80;;;4.43;;
80481;SDS011;69797;43.864;21.410;2023-07-02T01:08:03;13.53;;;4.87;;
80481;SDS011;69797;43.864;21.410;2023-07-02T01:10:33;11.73;;;4.70;;
80481;SDS011;69797;43.864;21.410;2023-07-02T01:13:22;10.45;;;3.90;;
80481;SDS011;69797;43.864;21.410;2023-07-02T01:15:49;8.88;;;3.88;;
80481;SDS011;69797;43.864;21.410;2023-07-02T01:18:17;11.57;;;4.38;;
80481;SDS011;69797;43.864;21.410;2023-07-02T01:20:44;8.60;;;4.07;;
80481;SDS011;69797;43.864;21.410;2023-07-02T01:23:15;9.45;;;3.90;;
80481;SDS011;69797;43.864;21.410;2023-07-02T01:25:42;10.88;;;4.45;;
80481;SDS011;69797;43.864;21.410;2023-07-02T01:28:13;13.45;;;5.18;;
80481;SDS011;69797;43.864;21.410;2023-07-02T01:30:40;10.52;;;4.65;;
80481;SDS011;69797;43.864;21.410;2023-07-02T01:33:07;10.83;;;4.03;;
80481;SDS011;69797;43.864;21.410;2023-07-02T01:35:33;11.43;;;4.60;;
80481;SDS011;69797;43.864;21.410;2023-07-02T01:38:00;10.32;;;4.25;;
80481;SDS011;69797;43.864;21.410;2023-07-02T01:40:27;10.43;;;4.50;;
80481;SDS011;69797;43.864;21.410;2023-07-02T01:42:54;11.88;;;4.95;;
80481;SDS011;69797;43.864;21.410;2023-07-02T01:45:20;12.43;;;5.33;;
80481;SDS011;69797;43.864;21.410;2023-07-02T01:47:47;10.85;;;4.95;;
80481;SDS011;69797;43.864;21.410;2023-07-02T01:50:19;10.20;;;4.85;;
80481;SDS011;69797;43.864;21.410;2023-07-02T01:52:46;11.13;;;4.65;;
80481;SDS011;69797;43.864;21.410;2023-07-02T01:55:13;13.27;;;5.13;;
80481;SDS011;69797;43.864;21.410;2023-07-02T01:57:42;11.63;;;5.07;;
80481;SDS011;69797;43.864;21.410;2023-07-02T02:00:12;10.57;;;4.72;;
80481;SDS011;69797;43.864;21.410;2023-07-02T02:02:39;12.35;;;5.15;;
80481;SDS011;69797;43.864;21.410;2023-07-02T02:05:09;11.95;;;4.43;;
80481;SDS011;69797;43.864;21.410;2023-07-02T02:07:36;11.38;;;4.70;;
80481;SDS011;69797;43.864;21.410;2023-07-02T02:10:08;11.20;;;4.70;;
80481;SDS011;69797;43.864;21.410;2023-07-02T02:12:36;10.80;;;5.60;;
80481;SDS011;69797;43.864;21.410;2023-07-02T02:15:03;10.93;;;4.93;;
80481;SDS011;69797;43.864;21.410;2023-07-02T02:17:31;11.95;;;4.88;;
80481;SDS011;69797;43.864;21.410;2023-07-02T02:19:58;12.13;;;5.00;;
80481;SDS011;69797;43.864;21.410;2023-07-02T02:22:25;11.40;;;5.43;;
80481;SDS011;69797;43.864;21.410;2023-07-02T02:24:52;11.00;;;4.90;;
80481;SDS011;69797;43.864;21.410;2023-07-02T02:27:23;14.00;;;4.75;;
80481;SDS011;69797;43.864;21.410;2023-07-02T02:29:50;11.85;;;4.93;;
80481;SDS011;69797;43.864;21.410;2023-07-02T02:32:17;10.00;;;4.47;;
80481;SDS011;69797;43.864;21.410;2023-07-02T02:34:46;8.97;;;3.40;;
80481;SDS011;69797;43.864;21.410;2023-07-02T02:37:12;8.27;;;3.20;;
80481;SDS011;69797;43.864;21.410;2023-07-02T02:39:39;7.25;;;3.10;;
80481;SDS011;69797;43.864;21.410;2023-07-02T02:42:06;7.93;;;2.67;;
80481;SDS011;69797;43.864;21.410;2023-07-02T02:44:34;7.53;;;3.03;;
80481;SDS011;69797;43.864;21.410;2023-07-02T02:47:01;8.97;;;3.40;;
80481;SDS011;69797;43.864;21.410;2023-07-02T02:49:30;5.38;;;3.15;;
80481;SDS011;69797;43.864;21.410;2023-07-02T02:51:57;8.65;;;3.20;;
80481;SDS011;69797;43.864;21.410;2023-07-02T02:54:24;7.95;;;3.28;;
80481;SDS011;69797;43.864;21.410;2023-07-02T02:56:51;6.38;;;3.50;;
80481;SDS011;69797;43.864;21.410;2023-07-02T02:59:18;8.27;;;2.70;;
80481;SDS011;69797;43.864;21.410;2023-07-02T03:01:44;9.52;;;3.63;;
80481;SDS011;69797;43.864;21.410;2023-07-02T03:04:14;6.88;;;3.30;;
80481;SDS011;69797;43.864;21.410;2023-07-02T03:06:41;7.75;;;3.45;;
80481;SDS011;69797;43.864;21.410;2023-07-02T03:09:08;9.60;;;3.63;;
80481;SDS011;69797;43.864;21.410;2023-07-02T03:11:35;10.03;;;3.63;;
80481;SDS011;69797;43.864;21.410;2023-07-02T03:14:01;5.60;;;2.80;;
80481;SDS011;69797;43.864;21.410;2023-07-02T03:16:28;7.28;;;2.90;;
80481;SDS011;69797;43.864;21.410;2023-07-02T03:18:58;9.35;;;3.20;;
80481;SDS011;69797;43.864;21.410;2023-07-02T03:21:28;5.88;;;2.90;;
80481;SDS011;69797;43.864;21.410;2023-07-02T03:23:56;9.57;;;3.10;;
80481;SDS011;69797;43.864;21.410;2023-07-02T03:26:23;9.82;;;3.13;;
80481;SDS011;69797;43.864;21.410;2023-07-02T03:28:50;9.57;;;3.25;;
80481;SDS011;69797;43.864;21.410;2023-07-02T03:31:17;8.88;;;3.00;;
80481;SDS011;69797;43.864;21.410;2023-07-02T03:33:43;10.23;;;3.33;;
80481;SDS011;69797;43.864;21.410;2023-07-02T03:36:10;8.90;;;3.13;;
80481;SDS011;69797;43.864;21.410;2023-07-02T03:38:37;5.32;;;3.05;;
80481;SDS011;69797;43.864;21.410;2023-07-02T03:41:04;6.80;;;2.70;;
80481;SDS011;69797;43.864;21.410;2023-07-02T03:43:33;11.93;;;3.63;;
80481;SDS011;69797;43.864;21.410;2023-07-02T03:46:00;9.07;;;3.88;;
80481;SDS011;69797;43.864;21.410;2023-07-02T03:48:27;8.27;;;3.60;;
80481;SDS011;69797;43.864;21.410;2023-07-02T03:50:54;10.73;;;3.92;;
80481;SDS011;69797;43.864;21.410;2023-07-02T03:53:20;5.78;;;3.35;;
80481;SDS011;69797;43.864;21.410;2023-07-02T03:55:47;6.90;;;3.55;;
80481;SDS011;69797;43.864;21.410;2023-07-02T03:58:18;6.30;;;3.53;;
80481;SDS011;69797;43.864;21.410;2023-07-02T04:00:45;7.77;;;3.17;;
80481;SDS011;69797;43.864;21.410;2023-07-02T04:03:16;10.95;;;4.15;;
80481;SDS011;69797;43.864;21.410;2023-07-02T04:05:44;9.32;;;3.97;;
80481;SDS011;69797;43.864;21.410;2023-07-02T04:08:10;10.02;;;4.00;;
80481;SDS011;69797;43.864;21.410;2023-07-02T04:10:37;8.50;;;3.95;;
80481;SDS011;69797;43.864;21.410;2023-07-02T04:13:04;10.03;;;4.23;;
80481;SDS011;69797;43.864;21.410;2023-07-02T04:15:31;9.20;;;4.18;;
80481;SDS011;69797;43.864;21.410;2023-07-02T04:17:58;11.93;;;4.75;;
80481;SDS011;69797;43.864;21.410;2023-07-02T04:20:25;9.15;;;4.30;;
80481;SDS011;69797;43.864;21.410;2023-07-02T04:22:52;11.88;;;4.50;;
80481;SDS011;69797;43.864;21.410;2023-07-02T04:25:21;12.27;;;4.97;;
80481;SDS011;69797;43.864;21.410;2023-07-02T04:28:05;11.68;;;4.88;;
80481;SDS011;69797;43.864;21.410;2023-07-02T04:30:32;8.52;;;5.05;;
80481;SDS011;69797;43.864;21.410;2023-07-02T04:32:59;9.52;;;3.70;;
80481;SDS011;69797;43.864;21.410;2023-07-02T04:35:26;8.48;;;3.53;;
80481;SDS011;69797;43.864;21.410;2023-07-02T04:37:56;7.93;;;3.60;;
80481;SDS011;69797;43.864;21.410;2023-07-02T04:40:23;7.50;;;3.40;;
80481;SDS011;69797;43.864;21.410;2023-07-02T04:42:50;9.15;;;3.38;;
80481;SDS011;69797;43.864;21.410;2023-07-02T04:45:25;10.07;;;3.40;;
80481;SDS011;69797;43.864;21.410;2023-07-02T04:47:52;11.20;;;4.53;;
80481;SDS011;69797;43.864;21.410;2023-07-02T04:50:23;7.03;;;3.47;;
80481;SDS011;69797;43.864;21.410;2023-07-02T04:52:49;12.10;;;3.85;;
80481;SDS011;69797;43.864;21.410;2023-07-02T04:55:16;7.10;;;3.60;;
80481;SDS011;69797;43.864;21.410;2023-07-02T04:57:43;10.30;;;4.25;;
80481;SDS011;69797;43.864;21.410;2023-07-02T05:00:13;11.00;;;4.43;;
80481;SDS011;69797;43.864;21.410;2023-07-02T05:02:42;10.57;;;5.00;;
80481;SDS011;69797;43.864;21.410;2023-07-02T05:05:09;9.43;;;4.45;;
80481;SDS011;69797;43.864;21.410;2023-07-02T05:07:36;10.43;;;4.43;;
80481;SDS011;69797;43.864;21.410;2023-07-02T05:10:03;9.70;;;5.28;;
80481;SDS011;69797;43.864;21.410;2023-07-02T05:12:30;11.05;;;4.88;;
80481;SDS011;69797;43.864;21.410;2023-07-02T05:14:57;11.70;;;4.97;;
80481;SDS011;69797;43.864;21.410;2023-07-02T05:17:24;6.30;;;4.35;;
80481;SDS011;69797;43.864;21.410;2023-07-02T05:19:50;9.52;;;6.07;;
80481;SDS011;69797;43.864;21.410;2023-07-02T05:22:19;12.18;;;5.78;;
80481;SDS011;69797;43.864;21.410;2023-07-02T05:24:46;12.25;;;5.93;;
80481;SDS011;69797;43.864;21.410;2023-07-02T05:27:15;11.83;;;6.20;;
80481;SDS011;69797;43.864;21.410;2023-07-02T05:29:42;11.13;;;5.85;;
80481;SDS011;69797;43.864;21.410;2023-07-02T05:32:12;12.00;;;5.07;;
80481;SDS011;69797;43.864;21.410;2023-07-02T05:34:38;10.52;;;5.50;;
80481;SDS011;69797;43.864;21.410;2023-07-02T05:37:05;11.88;;;6.65;;
80481;SDS011;69797;43.864;21.410;2023-07-02T05:39:33;8.90;;;5.33;;
80481;SDS011;69797;43.864;21.410;2023-07-02T05:42:00;10.50;;;6.75;;
80481;SDS011;69797;43.864;21.410;2023-07-02T05:44:27;9.85;;;5.82;;
80481;SDS011;69797;43.864;21.410;2023-07-02T05:46:54;12.85;;;5.40;;
80481;SDS011;69797;43.864;21.410;2023-07-02T05:49:20;11.05;;;5.47;;
80481;SDS011;69797;43.864;21.410;2023-07-02T05:51:47;9.97;;;5.80;;
80481;SDS011;69797;43.864;21.410;2023-07-02T05:54:14;10.07;;;5.68;;
80481;SDS011;69797;43.864;21.410;2023-07-02T05:56:44;10.65;;;5.65;;
80481;SDS011;69797;43.864;21.410;2023-07-02T05:59:11;10.88;;;6.03;;
80481;SDS011;69797;43.864;21.410;2023-07-02T06:01:41;10.50;;;5.47;;
80481;SDS011;69797;43.864;21.410;2023-07-02T06:04:11;13.57;;;6.63;;
80481;SDS011;69797;43.864;21.410;2023-07-02T06:06:38;13.23;;;5.82;;
80481;SDS011;69797;43.864;21.410;2023-07-02T06:09:07;17.70;;;5.68;;
80481;SDS011;69797;43.864;21.410;2023-07-02T06:11:34;8.70;;;4.97;;
80481;SDS011;69797;43.864;21.410;2023-07-02T06:14:01;10.00;;;5.05;;
80481;SDS011;69797;43.864;21.410;2023-07-02T06:16:27;10.20;;;5.50;;
80481;SDS011;69797;43.864;21.410;2023-07-02T06:18:55;9.80;;;4.90;;
80481;SDS011;69797;43.864;21.410;2023-07-02T06:21:22;12.40;;;5.57;;
80481;SDS011;69797;43.864;21.410;2023-07-02T06:23:49;11.52;;;5.38;;
80481;SDS011;69797;43.864;21.410;2023-07-02T06:26:16;11.20;;;6.18;;
80481;SDS011;69797;43.864;21.410;2023-07-02T06:28:43;9.83;;;5.33;;
80481;SDS011;69797;43.864;21.410;2023-07-02T06:31:09;11.18;;;6.20;;
80481;SDS011;69797;43.864;21.410;2023-07-02T06:33:38;10.65;;;6.05;;
80481;SDS011;69797;43.864;21.410;2023-07-02T06:36:09;11.57;;;5.55;;
80481;SDS011;69797;43.864;21.410;2023-07-02T06:38:38;12.93;;;5.60;;
80481;SDS011;69797;43.864;21.410;2023-07-02T06:41:08;13.87;;;6.57;;
80481;SDS011;69797;43.864;21.410;2023-07-02T06:43:35;10.10;;;5.60;;
80481;SDS011;69797;43.864;21.410;2023-07-02T06:46:02;11.98;;;6.18;;
80481;SDS011;69797;43.864;21.410;2023-07-02T06:48:29;10.77;;;5.50;;
80481;SDS011;69797;43.864;21.410;2023-07-02T06:50:56;13.75;;;6.57;;
80481;SDS011;69797;43.864;21.410;2023-07-02T06:53:23;10.73;;;6.17;;
80481;SDS011;69797;43.864;21.410;2023-07-02T06:55:50;12.45;;;6.95;;
80481;SDS011;69797;43.864;21.410;2023-07-02T06:58:16;12.50;;;6.28;;
80481;SDS011;69797;43.864;21.410;2023-07-02T07:00:52;11.80;;;5.85;;
80481;SDS011;69797;43.864;21.410;2023-07-02T07:03:19;13.40;;;6.22;;
80481;SDS011;69797;43.864;21.410;2023-07-02T07:05:45;13.10;;;6.23;;
80481;SDS011;69797;43.864;21.410;2023-07-02T07:08:18;11.38;;;5.93;;
80481;SDS011;69797;43.864;21.410;2023-07-02T07:10:45;14.25;;;6.15;;
80481;SDS011;69797;43.864;21.410;2023-07-02T07:13:12;13.63;;;6.22;;
80481;SDS011;69797;43.864;21.410;2023-07-02T07:15:39;12.68;;;6.78;;
80481;SDS011;69797;43.864;21.410;2023-07-02T07:18:08;13.80;;;6.47;;
80481;SDS011;69797;43.864;21.410;2023-07-02T07:20:35;13.98;;;6.28;;
80481;SDS011;69797;43.864;21.410;2023-07-02T07:23:05;11.40;;;6.05;;
80481;SDS011;69797;43.864;21.410;2023-07-02T07:25:33;10.27;;;5.82;;
80481;SDS011;69797;43.864;21.410;2023-07-02T07:28:00;12.98;;;6.28;;
80481;SDS011;69797;43.864;21.410;2023-07-02T07:30:27;14.37;;;7.23;;
80481;SDS011;69797;43.864;21.410;2023-07-02T07:32:57;14.82;;;6.72;;
80481;SDS011;69797;43.864;21.410;2023-07-02T07:35:23;17.38;;;7.85;;
80481;SDS011;69797;43.864;21.410;2023-07-02T07:37:50;14.75;;;6.80;;
80481;SDS011;69797;43.864;21.410;2023-07-02T07:40:17;15.70;;;6.82;;
80481;SDS011;69797;43.864;21.410;2023-07-02T07:42:44;16.03;;;7.10;;
80481;SDS011;69797;43.864;21.410;2023-07-02T07:45:13;15.75;;;8.20;;
80481;SDS011;69797;43.864;21.410;2023-07-02T07:47:40;16.50;;;8.35;;
80481;SDS011;69797;43.864;21.410;2023-07-02T07:50:09;16.15;;;8.25;;
80481;SDS011;69797;43.864;21.410;2023-07-02T07:52:40;18.58;;;8.98;;
80481;SDS011;69797;43.864;21.410;2023-07-02T07:55:09;15.67;;;8.20;;
80481;SDS011;69797;43.864;21.410;2023-07-02T07:57:36;17.90;;;7.93;;
80481;SDS011;69797;43.864;21.410;2023-07-02T08:00:04;17.95;;;8.38;;
80481;SDS011;69797;43.864;21.410;2023-07-02T08:02:34;14.02;;;7.68;;
80481;SDS011;69797;43.864;21.410;2023-07-02T08:05:04;15.52;;;8.35;;
80481;SDS011;69797;43.864;21.410;2023-07-02T08:07:31;18.40;;;10.20;;
80481;SDS011;69797;43.864;21.410;2023-07-02T08:10:01;18.33;;;10.13;;
80481;SDS011;69797;43.864;21.410;2023-07-02T08:12:29;16.52;;;9.70;;
80481;SDS011;69797;43.864;21.410;2023-07-02T08:14:56;14.27;;;9.40;;
80481;SDS011;69797;43.864;21.410;2023-07-02T08:17:23;15.88;;;7.97;;
80481;SDS011;69797;43.864;21.410;2023-07-02T08:19:49;14.90;;;8.83;;
80481;SDS011;69797;43.864;21.410;2023-07-02T08:22:16;19.05;;;9.82;;
80481;SDS011;69797;43.864;21.410;2023-07-02T08:24:43;15.18;;;8.35;;
80481;SDS011;69797;43.864;21.410;2023-07-02T08:27:10;14.07;;;8.00;;
80481;SDS011;69797;43.864;21.410;2023-07-02T08:29:40;17.83;;;7.65;;
80481;SDS011;69797;43.864;21.410;2023-07-02T08:32:07;20.80;;;8.87;;
80481;SDS011;69797;43.864;21.410;2023-07-02T08:34:33;18.88;;;9.18;;
80481;SDS011;69797;43.864;21.410;2023-07-02T08:37:00;16.80;;;7.93;;
80481;SDS011;69797;43.864;21.410;2023-07-02T08:39:29;17.33;;;8.30;;
80481;SDS011;69797;43.864;21.410;2023-07-02T08:41:56;12.82;;;7.82;;
80481;SDS011;69797;43.864;21.410;2023-07-02T08:44:23;16.03;;;7.67;;
80481;SDS011;69797;43.864;21.410;2023-07-02T08:46:52;12.02;;;7.45;;
80481;SDS011;69797;43.864;21.410;2023-07-02T08:49:22;13.48;;;7.18;;
80481;SDS011;69797;43.864;21.410;2023-07-02T08:51:49;11.40;;;7.70;;
80481;SDS011;69797;43.864;21.410;2023-07-02T08:54:17;11.57;;;7.25;;
80481;SDS011;69797;43.864;21.410;2023-07-02T08:56:46;13.37;;;7.20;;
80481;SDS011;69797;43.864;21.410;2023-07-02T08:59:14;14.32;;;7.72;;
80481;SDS011;69797;43.864;21.410;2023-07-02T09:01:44;25.02;;;8.65;;
80481;SDS011;69797;43.864;21.410;2023-07-02T09:04:16;14.32;;;8.52;;
80481;SDS011;69797;43.864;21.410;2023-07-02T09:06:49;15.98;;;8.68;;
80481;SDS011;69797;43.864;21.410;2023-07-02T09:09:18;11.07;;;8.00;;
80481;SDS011;69797;43.864;21.410;2023-07-02T09:11:49;14.38;;;9.18;;
80481;SDS011;69797;43.864;21.410;2023-07-02T09:14:26;13.85;;;8.80;;
80481;SDS011;69797;43.864;21.410;2023-07-02T09:17:05;13.93;;;8.55;;
80481;SDS011;69797;43.864;21.410;2023-07-02T09:19:33;10.88;;;8.30;;
80481;SDS011;69797;43.864;21.410;2023-07-02T09:22:05;11.83;;;8.87;;
80481;SDS011;69797;43.864;21.410;2023-07-02T09:24:32;13.75;;;9.05;;
80481;SDS011;69797;43.864;21.410;2023-07-02T09:26:59;14.63;;;8.43;;
80481;SDS011;69797;43.864;21.410;2023-07-02T09:29:28;14.23;;;8.80;;
80481;SDS011;69797;43.864;21.410;2023-07-02T09:32:01;14.98;;;8.05;;
80481;SDS011;69797;43.864;21.410;2023-07-02T09:34:36;10.73;;;8.40;;
80481;SDS011;69797;43.864;21.410;2023-07-02T09:37:06;13.00;;;8.57;;
80481;SDS011;69797;43.864;21.410;2023-07-02T09:39:35;12.40;;;8.52;;
80481;SDS011;69797;43.864;21.410;2023-07-02T09:42:05;13.93;;;8.10;;
80481;SDS011;69797;43.864;21.410;2023-07-02T09:44:33;15.43;;;8.25;;
80481;SDS011;69797;43.864;21.410;2023-07-02T09:47:04;12.67;;;8.30;;
80481;SDS011;69797;43.864;21.410;2023-07-02T09:49:33;11.80;;;9.25;;
80481;SDS011;69797;43.864;21.410;2023-07-02T09:52:01;14.57;;;9.13;;
80481;SDS011;69797;43.864;21.410;2023-07-02T09:54:29;10.98;;;8.75;;
80481;SDS011;69797;43.864;21.410;2023-07-02T09:56:57;10.43;;;8.23;;
80481;SDS011;69797;43.864;21.410;2023-07-02T09:59:25;11.47;;;8.00;;
80481;SDS011;69797;43.864;21.410;2023-07-02T10:01:52;12.80;;;8.40;;
80481;SDS011;69797;43.864;21.410;2023-07-02T10:04:20;11.88;;;8.20;;
80481;SDS011;69797;43.864;21.410;2023-07-02T10:06:51;12.10;;;8.30;;
80481;SDS011;69797;43.864;21.410;2023-07-02T10:09:20;11.75;;;7.95;;
80481;SDS011;69797;43.864;21.410;2023-07-02T10:11:48;11.67;;;7.87;;
80481;SDS011;69797;43.864;21.410;2023-07-02T10:14:15;10.02;;;7.68;;
80481;SDS011;69797;43.864;21.410;2023-07-02T10:16:51;12.18;;;7.53;;
80481;SDS011;69797;43.864;21.410;2023-07-02T10:19:19;11.20;;;7.50;;
80481;SDS011;69797;43.864;21.410;2023-07-02T10:22:02;12.77;;;8.82;;
80481;SDS011;69797;43.864;21.410;2023-07-02T10:24:31;12.20;;;8.13;;
80481;SDS011;69797;43.864;21.410;2023-07-02T10:26:59;10.25;;;8.20;;
80481;SDS011;69797;43.864;21.410;2023-07-02T10:29:27;10.43;;;8.13;;
80481;SDS011;69797;43.864;21.410;2023-07-02T10:31:55;12.52;;;9.15;;
80481;SDS011;69797;43.864;21.410;2023-07-02T10:34:29;12.45;;;9.10;;
80481;SDS011;69797;43.864;21.410;2023-07-02T10:36:57;10.60;;;8.47;;
80481;SDS011;69797;43.864;21.410;2023-07-02T10:39:26;10.93;;;8.70;;
80481;SDS011;69797;43.864;21.410;2023-07-02T10:41:53;13.57;;;10.13;;
80481;SDS011;69797;43.864;21.410;2023-07-02T10:44:29;11.00;;;8.05;;
80481;SDS011;69797;43.864;21.410;2023-07-02T10:46:57;11.73;;;9.85;;
80481;SDS011;69797;43.864;21.410;2023-07-02T10:49:29;10.77;;;9.67;;
80481;SDS011;69797;43.864;21.410;2023-07-02T10:52:02;14.60;;;9.88;;
80481;SDS011;69797;43.864;21.410;2023-07-02T10:54:39;12.82;;;9.07;;
80481;SDS011;69797;43.864;21.410;2023-07-02T10:57:09;15.02;;;9.43;;
80481;SDS011;69797;43.864;21.410;2023-07-02T10:59:36;13.95;;;9.95;;
80481;SDS011;69797;43.864;21.410;2023-07-02T11:02:03;12.10;;;9.93;;
80481;SDS011;69797;43.864;21.410;2023-07-02T11:04:33;12.15;;;9.75;;
80481;SDS011;69797;43.864;21.410;2023-07-02T11:07:00;11.63;;;9.38;;
80481;SDS011;69797;43.864;21.410;2023-07-02T11:09:27;12.40;;;11.10;;
80481;SDS011;69797;43.864;21.410;2023-07-02T11:11:55;11.38;;;10.18;;
80481;SDS011;69797;43.864;21.410;2023-07-02T11:14:29;14.60;;;11.43;;
80481;SDS011;69797;43.864;21.410;2023-07-02T11:16:58;13.00;;;10.27;;
80481;SDS011;69797;43.864;21.410;2023-07-02T11:19:28;11.52;;;9.50;;
80481;SDS011;69797;43.864;21.410;2023-07-02T11:21:56;13.18;;;10.82;;
80481;SDS011;69797;43.864;21.410;2023-07-02T11:27:04;12.50;;;10.27;;
80481;SDS011;69797;43.864;21.410;2023-07-02T11:29:32;12.23;;;10.40;;
80481;SDS011;69797;43.864;21.410;2023-07-02T11:32:09;13.98;;;11.68;;
80481;SDS011;69797;43.864;21.410;2023-07-02T11:34:37;12.10;;;9.88;;
80481;SDS011;69797;43.864;21.410;2023-07-02T11:37:05;14.88;;;11.23;;
80481;SDS011;69797;43.864;21.410;2023-07-02T11:39:33;12.57;;;11.10;;
80481;SDS011;69797;43.864;21.410;2023-07-02T11:41:59;11.20;;;10.00;;
80481;SDS011;69797;43.864;21.410;2023-07-02T11:44:26;13.68;;;11.10;;
80481;SDS011;69797;43.864;21.410;2023-07-02T11:46:53;15.05;;;11.63;;
80481;SDS011;69797;43.864;21.410;2023-07-02T11:49:20;13.70;;;11.35;;
80481;SDS011;69797;43.864;21.410;2023-07-02T11:51:47;14.67;;;12.03;;
80481;SDS011;69797;43.864;21.410;2023-07-02T11:54:16;13.27;;;11.68;;
80481;SDS011;69797;43.864;21.410;2023-07-02T11:56:45;13.70;;;12.30;;
80481;SDS011;69797;43.864;21.410;2023-07-02T11:59:15;13.55;;;11.38;;
80481;SDS011;69797;43.864;21.410;2023-07-02T12:01:42;17.40;;;12.80;;
80481;SDS011;69797;43.864;21.410;2023-07-02T12:04:10;13.87;;;12.43;;
80481;SDS011;69797;43.864;21.410;2023-07-02T12:06:38;15.23;;;11.82;;
80481;SDS011;69797;43.864;21.410;2023-07-02T12:09:05;15.13;;;12.52;;
80481;SDS011;69797;43.864;21.410;2023-07-02T12:11:32;15.25;;;11.98;;
80481;SDS011;69797;43.864;21.410;2023-07-02T12:13:58;11.68;;;10.20;;
80481;SDS011;69797;43.864;21.410;2023-07-02T12:16:25;14.07;;;9.57;;
80481;SDS011;69797;43.864;21.410;2023-07-02T12:18:52;14.73;;;11.45;;
80481;SDS011;69797;43.864;21.410;2023-07-02T12:21:24;15.63;;;10.25;;
80481;SDS011;69797;43.864;21.410;2023-07-02T12:23:52;15.75;;;12.00;;
80481;SDS011;69797;43.864;21.410;2023-07-02T12:26:18;14.43;;;11.10;;
80481;SDS011;69797;43.864;21.410;2023-07-02T12:28:45;15.30;;;11.43;;
80481;SDS011;69797;43.864;21.410;2023-07-02T12:31:12;14.00;;;11.38;;
80481;SDS011;69797;43.864;21.410;2023-07-02T12:33:42;14.32;;;10.50;;
80481;SDS011;69797;43.864;21.410;2023-07-02T12:36:09;12.60;;;9.20;;
80481;SDS011;69797;43.864;21.410;2023-07-02T12:38:36;12.73;;;9.85;;
80481;SDS011;69797;43.864;21.410;2023-07-02T12:41:02;11.23;;;8.90;;
80481;SDS011;69797;43.864;21.410;2023-07-02T12:43:31;11.00;;;9.00;;
80481;SDS011;69797;43.864;21.410;2023-07-02T12:45:58;11.27;;;9.52;;
80481;SDS011;69797;43.864;21.410;2023-07-02T12:48:27;11.15;;;8.88;;
80481;SDS011;69797;43.864;21.410;2023-07-02T12:50:57;10.27;;;9.18;;
80481;SDS011;69797;43.864;21.410;2023-07-02T12:53:25;11.67;;;8.53;;
80481;SDS011;69797;43.864;21.410;2023-07-02T12:55:53;11.07;;;8.50;;
80481;SDS011;69797;43.864;21.410;2023-07-02T12:58:24;9.75;;;7.40;;
80481;SDS011;69797;43.864;21.410;2023-07-02T13:00:50;9.93;;;7.72;;
80481;SDS011;69797;43.864;21.410;2023-07-02T13:03:17;10.00;;;8.25;;
80481;SDS011;69797;43.864;21.410;2023-07-02T13:05:47;11.93;;;7.57;;
80481;SDS011;69797;43.864;21.410;2023-07-02T13:08:14;7.95;;;6.60;;
80481;SDS011;69797;43.864;21.410;2023-07-02T13:10:44;8.73;;;7.10;;
80481;SDS011;69797;43.864;21.410;2023-07-02T13:13:11;10.68;;;7.22;;
80481;SDS011;69797;43.864;21.410;2023-07-02T13:15:48;8.73;;;7.25;;
80481;SDS011;69797;43.864;21.410;2023-07-02T13:18:19;12.53;;;8.30;;
80481;SDS011;69797;43.864;21.410;2023-07-02T13:20:45;9.57;;;8.07;;
80481;SDS011;69797;43.864;21.410;2023-07-02T13:23:12;10.43;;;7.47;;
80481;SDS011;69797;43.864;21.410;2023-07-02T13:25:40;9.77;;;7.55;;
80481;SDS011;69797;43.864;21.410;2023-07-02T13:28:07;9.77;;;8.07;;
80481;SDS011;69797;43.864;21.410;2023-07-02T13:30:34;8.60;;;7.60;;
80481;SDS011;69797;43.864;21.410;2023-07-02T13:33:01;11.32;;;8.25;;
80481;SDS011;69797;43.864;21.410;2023-07-02T13:35:30;10.35;;;7.93;;
80481;SDS011;69797;43.864;21.410;2023-07-02T13:37:57;10.40;;;8.00;;
80481;SDS011;69797;43.864;21.410;2023-07-02T13:40:25;10.25;;;7.72;;
80481;SDS011;69797;43.864;21.410;2023-07-02T13:42:52;10.27;;;7.50;;
80481;SDS011;69797;43.864;21.410;2023-07-02T13:45:19;9.02;;;7.10;;
80481;SDS011;69797;43.864;21.410;2023-07-02T13:47:46;9.35;;;7.25;;
80481;SDS011;69797;43.864;21.410;2023-07-02T13:50:13;9.60;;;7.80;;
80481;SDS011;69797;43.864;21.410;2023-07-02T13:52:39;11.02;;;7.72;;
80481;SDS011;69797;43.864;21.410;2023-07-02T13:55:06;10.30;;;7.10;;
80481;SDS011;69797;43.864;21.410;2023-07-02T13:57:33;10.70;;;8.15;;
80481;SDS011;69797;43.864;21.410;2023-07-02T14:00:00;10.25;;;7.70;;
80481;SDS011;69797;43.864;21.410;2023-07-02T14:02:30;11.38;;;7.95;;
80481;SDS011;69797;43.864;21.410;2023-07-02T14:05:00;10.27;;;7.60;;
80481;SDS011;69797;43.864;21.410;2023-07-02T14:07:27;9.33;;;7.53;;
80481;SDS011;69797;43.864;21.410;2023-07-02T14:09:54;10.35;;;7.85;;
80481;SDS011;69797;43.864;21.410;2023-07-02T14:12:21;11.20;;;8.65;;
80481;SDS011;69797;43.864;21.410;2023-07-02T14:14:48;10.02;;;8.02;;
80481;SDS011;69797;43.864;21.410;2023-07-02T14:17:15;12.13;;;8.32;;
80481;SDS011;69797;43.864;21.410;2023-07-02T14:19:43;13.60;;;8.57;;
80481;SDS011;69797;43.864;21.410;2023-07-02T14:22:10;12.38;;;8.30;;
80481;SDS011;69797;43.864;21.410;2023-07-02T14:24:37;11.57;;;8.52;;
80481;SDS011;69797;43.864;21.410;2023-07-02T14:27:04;10.88;;;7.88;;
80481;SDS011;69797;43.864;21.410;2023-07-02T14:29:34;12.95;;;8.95;;
80481;SDS011;69797;43.864;21.410;2023-07-02T14:32:00;11.57;;;7.97;;